Time;durP1;ratioP1;P1;durP2;ratioP2;P2;SDS_P1;SDS_P2;PMS_P1;PMS_P2;Temp;Humidity;BMP_temperature;BMP_pressure;BME280_temperature;BME280_humidity;BME280_pressure;Samples;Min_cycle;Max_cycle;Signal;HPM_P1;HPM_P2
2021/04/16 00:00:39;;;;;;;1.10;0.13;;;2.50;99.90;;;;;;5037822;28;20032;-75
2021/04/16 00:03:06;;;;;;;2.67;0.10;;;2.40;99.90;;;;;;5038056;28;20033;-74
2021/04/16 00:05:32;;;;;;;2.63;0.13;;;2.30;99.90;;;;;;5056210;28;20079;-75
2021/04/16 00:07:58;;;;;;;0.93;0.03;;;2.30;99.90;;;;;;5056213;28;20377;-75
2021/04/16 00:10:34;;;;;;;0.30;0.00;;;2.30;99.90;;;;;;5037714;28;20025;-74
2021/04/16 00:13:00;;;;;;;0.20;0.00;;;2.20;99.90;;;;;;5054960;28;20112;-74
2021/04/16 00:15:29;;;;;;;0.98;0.13;;;2.20;99.90;;;;;;5055568;28;20021;-74
2021/04/16 00:17:55;;;;;;;0.63;0.00;;;2.20;99.90;;;;;;5037982;28;20478;-74
2021/04/16 00:20:23;;;;;;;1.13;0.00;;;2.10;99.90;;;;;;5037936;28;20119;-75
2021/04/16 00:22:49;;;;;;;1.30;0.00;;;2.10;99.90;;;;;;5038178;28;20048;-75
2021/04/16 00:25:18;;;;;;;0.98;0.00;;;2.00;99.90;;;;;;5056374;28;20438;-74
2021/04/16 00:27:44;;;;;;;3.53;0.10;;;2.00;99.90;;;;;;5055844;28;20577;-74
2021/04/16 00:30:11;;;;;;;2.30;0.17;;;1.90;99.90;;;;;;5068036;23;20053;-74
2021/04/16 00:32:36;;;;;;;0.80;0.00;;;1.90;99.90;;;;;;5055604;28;20029;-74
2021/04/16 00:35:05;;;;;;;0.40;0.00;;;1.90;99.90;;;;;;5038717;28;20451;-75
2021/04/16 00:37:31;;;;;;;0.85;0.08;;;1.80;99.90;;;;;;5055213;28;20013;-75
2021/04/16 00:39:56;;;;;;;0.22;0.00;;;1.80;99.90;;;;;;5037185;28;20048;-75
2021/04/16 00:42:22;;;;;;;1.20;0.00;;;1.70;99.90;;;;;;5055673;28;20028;-74
2021/04/16 00:44:48;;;;;;;0.68;0.08;;;1.70;99.90;;;;;;5055964;28;20104;-74
2021/04/16 00:47:17;;;;;;;0.47;0.10;;;1.70;99.90;;;;;;5055929;28;20032;-74
2021/04/16 00:49:46;;;;;;;1.65;0.00;;;1.60;99.90;;;;;;5037297;28;20396;-74
2021/04/16 00:52:28;;;;;;;1.70;0.00;;;1.60;99.90;;;;;;5055394;28;20017;-75
2021/04/16 00:54:54;;;;;;;1.77;0.00;;;1.60;99.90;;;;;;5037242;28;20472;-74
2021/04/16 00:57:22;;;;;;;0.57;0.00;;;1.60;99.90;;;;;;5055313;28;20086;-74
2021/04/16 00:59:52;;;;;;;1.60;0.35;;;1.60;99.90;;;;;;5058572;28;20032;-76
2021/04/16 01:02:18;;;;;;;0.22;0.00;;;1.50;99.90;;;;;;5054943;28;20029;-75
2021/04/16 01:04:44;;;;;;;0.10;0.00;;;1.50;99.90;;;;;;5054931;28;20163;-76
2021/04/16 01:07:10;;;;;;;0.70;0.10;;;1.50;99.90;;;;;;5054267;28;20104;-76
2021/04/16 01:09:35;;;;;;;0.95;0.20;;;1.50;99.90;;;;;;5054421;28;20025;-76
2021/04/16 01:12:07;;;;;;;2.40;0.10;;;1.50;99.90;;;;;;5054609;28;20496;-76
2021/04/16 01:14:35;;;;;;;0.75;0.00;;;1.50;99.90;;;;;;5036499;28;20044;-76
2021/04/16 01:17:01;;;;;;;0.43;0.10;;;1.40;99.90;;;;;;5054216;28;20154;-76
2021/04/16 01:19:48;;;;;;;0.30;0.10;;;1.40;99.90;;;;;;5054292;28;20021;-76
2021/04/16 01:22:23;;;;;;;0.70;0.10;;;1.30;99.90;;;;;;5054203;28;20118;-75
2021/04/16 01:24:49;;;;;;;2.50;0.25;;;1.30;99.90;;;;;;5036258;28;20025;-75
2021/04/16 01:27:14;;;;;;;1.55;0.20;;;1.30;99.90;;;;;;5036357;28;20159;-75
2021/04/16 01:29:44;;;;;;;1.15;0.10;;;1.30;99.90;;;;;;5053844;28;20095;-74
2021/04/16 01:32:22;;;;;;;0.52;0.10;;;1.20;99.90;;;;;;5037255;28;20108;-74
2021/04/16 01:34:47;;;;;;;0.82;0.15;;;1.20;99.90;;;;;;5054341;28;20505;-73
2021/04/16 01:37:13;;;;;;;1.10;0.20;;;1.10;99.90;;;;;;5036207;28;20021;-74
2021/04/16 01:39:38;;;;;;;0.45;0.10;;;1.10;99.90;;;;;;5036540;28;20021;-74
2021/04/16 01:42:04;;;;;;;1.05;0.00;;;1.10;99.90;;;;;;5036341;28;20116;-74
2021/04/16 01:44:30;;;;;;;1.40;0.10;;;1.10;99.90;;;;;;5069521;28;20036;-74
2021/04/16 01:47:02;;;;;;;2.50;0.20;;;1.00;99.90;;;;;;5054502;28;20045;-74
2021/04/16 01:49:31;;;;;;;2.28;0.28;;;1.00;99.90;;;;;;5036462;28;20091;-74
2021/04/16 01:51:58;;;;;;;2.63;0.45;;;1.00;99.90;;;;;;5053459;28;20055;-74
2021/04/16 01:54:31;;;;;;;0.68;0.10;;;1.00;99.90;;;;;;5054088;28;20025;-74
2021/04/16 01:57:21;;;;;;;1.02;0.20;;;1.00;99.90;;;;;;5088648;23;20048;-74
2021/04/16 01:59:49;;;;;;;0.65;0.10;;;0.90;99.90;;;;;;5032568;28;20401;-76
2021/04/16 02:02:19;;;;;;;0.90;0.13;;;0.90;99.90;;;;;;5050778;28;20025;-75
2021/04/16 02:04:45;;;;;;;0.28;0.13;;;0.90;99.90;;;;;;5056814;23;20050;-74
2021/04/16 02:07:10;;;;;;;1.23;0.35;;;0.90;99.90;;;;;;5055435;28;20455;-75
2021/04/16 02:09:39;;;;;;;1.30;0.13;;;0.80;99.90;;;;;;5055517;28;20028;-75
2021/04/16 02:12:07;;;;;;;0.30;0.03;;;0.80;99.90;;;;;;5073960;28;20037;-75
2021/04/16 02:14:33;;;;;;;2.05;0.10;;;0.70;99.90;;;;;;5073471;28;20508;-75
2021/04/16 02:17:05;;;;;;;1.58;0.10;;;0.70;99.90;;;;;;5073436;28;20024;-75
2021/04/16 02:19:31;;;;;;;1.70;0.15;;;0.60;99.90;;;;;;5070787;28;20039;-74
2021/04/16 02:21:56;;;;;;;1.58;0.10;;;0.60;99.90;;;;;;5086072;23;20029;-74
2021/04/16 02:24:22;;;;;;;0.80;0.20;;;0.60;99.90;;;;;;5056258;28;20071;-74
2021/04/16 02:26:48;;;;;;;1.50;0.05;;;0.50;99.90;;;;;;5074402;28;20150;-74
2021/04/16 02:29:16;;;;;;;1.05;0.35;;;0.60;99.90;;;;;;5055740;28;20115;-75
2021/04/16 02:31:42;;;;;;;0.87;0.10;;;0.50;99.90;;;;;;5073835;28;20036;-75
2021/04/16 02:34:16;;;;;;;1.60;0.35;;;0.50;99.90;;;;;;5073751;28;20031;-74
2021/04/16 02:36:41;;;;;;;0.65;0.32;;;0.50;99.90;;;;;;5077911;28;20082;-74
2021/04/16 02:39:07;;;;;;;0.73;0.10;;;0.50;99.90;;;;;;5077135;28;20025;-74
2021/04/16 02:41:34;;;;;;;2.08;0.28;;;0.40;99.90;;;;;;5077322;28;20082;-74
2021/04/16 02:44:00;;;;;;;1.02;0.20;;;0.40;99.90;;;;;;5059552;28;20020;-74
2021/04/16 02:46:26;;;;;;;1.15;0.20;;;0.30;99.90;;;;;;5077287;28;20028;-74
2021/04/16 02:48:51;;;;;;;0.85;0.30;;;0.30;99.90;;;;;;5077367;28;20023;-74
2021/04/16 02:51:17;;;;;;;1.10;0.10;;;0.30;99.90;;;;;;5077494;28;20025;-74
2021/04/16 02:53:42;;;;;;;7.68;0.30;;;0.20;99.90;;;;;;5077917;28;20028;-74
2021/04/16 02:56:08;;;;;;;4.15;0.32;;;0.20;99.90;;;;;;5077769;28;20024;-73
2021/04/16 02:58:34;;;;;;;3.47;0.10;;;0.20;99.90;;;;;;5058806;28;20032;-74
2021/04/16 03:00:59;;;;;;;1.55;0.10;;;0.10;99.90;;;;;;5077130;28;20028;-73
2021/04/16 03:03:25;;;;;;;3.03;0.10;;;0.10;99.90;;;;;;5059436;28;20031;-73
2021/04/16 03:05:52;;;;;;;1.23;0.28;;;0.10;99.90;;;;;;5059242;28;20354;-74
2021/04/16 03:08:18;;;;;;;1.13;0.15;;;0.10;99.90;;;;;;5076893;28;20012;-73
2021/04/16 03:10:44;;;;;;;2.85;0.40;;;0.10;99.90;;;;;;5058793;28;20413;-74
2021/04/16 03:13:10;;;;;;;0.90;0.10;;;0.00;99.90;;;;;;5076352;28;20028;-74
2021/04/16 03:15:36;;;;;;;3.20;0.22;;;0.00;99.90;;;;;;5077125;28;20119;-74
2021/04/16 03:18:02;;;;;;;0.43;0.10;;;0.10;99.90;;;;;;5059123;28;20020;-74
2021/04/16 03:20:28;;;;;;;1.55;0.20;;;0.00;99.90;;;;;;5076747;28;20071;-75
2021/04/16 03:22:54;;;;;;;0.82;0.10;;;0.00;99.90;;;;;;5076781;28;20485;-75
2021/04/16 03:25:20;;;;;;;2.10;0.40;;;0.00;99.90;;;;;;5077276;28;20027;-74
2021/04/16 03:27:45;;;;;;;0.30;0.08;;;-0.10;99.90;;;;;;5058355;28;20394;-75
2021/04/16 03:30:16;;;;;;;2.40;0.20;;;-0.10;99.90;;;;;;5058314;28;20027;-75
2021/04/16 03:32:42;;;;;;;0.68;0.05;;;-0.10;99.90;;;;;;5076298;28;20059;-75
2021/04/16 03:35:08;;;;;;;1.35;0.10;;;-0.10;99.90;;;;;;5076257;28;20032;-75
2021/04/16 03:37:34;;;;;;;0.73;0.20;;;-0.10;99.90;;;;;;5076441;28;20036;-74
2021/04/16 03:40:00;;;;;;;2.75;0.35;;;-0.10;99.90;;;;;;5076599;28;20032;-74
2021/04/16 03:42:25;;;;;;;0.68;0.10;;;-0.10;99.90;;;;;;5076733;28;20052;-75
2021/04/16 03:44:51;;;;;;;1.02;0.25;;;-0.10;99.90;;;;;;5038439;28;20111;-75
2021/04/16 03:47:17;;;;;;;0.73;0.10;;;-0.10;99.90;;;;;;5057430;28;20529;-75
2021/04/16 03:49:44;;;;;;;2.80;0.22;;;-0.20;99.90;;;;;;5076736;28;20047;-74
2021/04/16 03:52:10;;;;;;;0.90;0.20;;;-0.10;99.90;;;;;;5077276;28;20082;-76
2021/04/16 03:54:36;;;;;;;0.90;0.20;;;-0.10;99.90;;;;;;5056280;28;20474;-75
2021/04/16 03:57:02;;;;;;;2.95;0.20;;;-0.10;99.90;;;;;;5038555;28;20025;-75
2021/04/16 03:59:28;;;;;;;1.92;0.22;;;-0.10;99.90;;;;;;5057420;28;20039;-74
2021/04/16 04:01:53;;;;;;;2.63;0.20;;;-0.10;99.90;;;;;;5058534;28;20096;-75
2021/04/16 04:04:21;;;;;;;1.75;0.30;;;-0.20;99.90;;;;;;5076286;28;20478;-74
2021/04/16 04:06:48;;;;;;;0.95;0.10;;;-0.20;99.90;;;;;;5058457;28;20405;-74
2021/04/16 04:09:14;;;;;;;2.85;0.57;;;-0.20;99.90;;;;;;5087749;22;20098;-74
2021/04/16 04:11:40;;;;;;;4.03;0.10;;;-0.20;99.90;;;;;;5076530;28;20028;-75
2021/04/16 04:14:06;;;;;;;3.33;0.10;;;-0.20;99.90;;;;;;5095058;28;20028;-75
2021/04/16 04:16:58;;;;;;;1.30;0.10;;;-0.20;99.90;;;;;;5058037;28;20031;-75
2021/04/16 04:19:25;;;;;;;1.88;0.45;;;-0.20;99.90;;;;;;5055265;28;20082;-74
2021/04/16 04:21:53;;;;;;;1.77;0.40;;;-0.20;99.90;;;;;;5055981;28;20037;-74
2021/04/16 04:24:19;;;;;;;1.17;0.20;;;-0.30;99.90;;;;;;5055861;28;20021;-75
2021/04/16 04:26:45;;;;;;;1.02;0.20;;;-0.30;99.90;;;;;;5055890;28;20109;-75
2021/04/16 04:29:11;;;;;;;3.33;0.40;;;-0.40;99.90;;;;;;5037616;28;20048;-74
2021/04/16 04:31:46;;;;;;;1.00;0.20;;;-0.30;99.90;;;;;;5082636;22;20053;-73
2021/04/16 04:34:17;;;;;;;3.28;0.35;;;-0.30;99.90;;;;;;5057222;23;20044;-75
2021/04/16 04:36:42;;;;;;;1.58;0.10;;;-0.40;99.90;;;;;;5075495;28;20108;-75
2021/04/16 04:39:08;;;;;;;1.95;0.32;;;-0.40;99.90;;;;;;5058497;28;20465;-74
2021/04/16 04:41:34;;;;;;;4.80;0.80;;;-0.40;99.90;;;;;;5068979;23;20048;-76
2021/04/16 04:44:00;;;;;;;0.82;0.10;;;-0.30;99.90;;;;;;5057094;28;20029;-76
2021/04/16 04:46:25;;;;;;;3.60;1.05;;;-0.30;99.90;;;;;;5087613;23;20385;-75
2021/04/16 04:48:51;;;;;;;2.63;0.50;;;-0.30;99.90;;;;;;5074915;28;20024;-75
2021/04/16 04:51:18;;;;;;;2.30;0.52;;;-0.30;99.90;;;;;;5074904;28;20520;-76
2021/04/16 04:53:43;;;;;;;2.55;0.60;;;-0.20;99.90;;;;;;5075051;28;20052;-77
2021/04/16 04:56:09;;;;;;;4.25;0.17;;;-0.20;99.90;;;;;;5057367;28;20027;-75
2021/04/16 04:58:34;;;;;;;2.25;0.55;;;-0.10;99.90;;;;;;5086832;22;20127;-76
2021/04/16 05:01:00;;;;;;;2.05;0.77;;;-0.10;99.90;;;;;;5074769;28;20376;-76
2021/04/16 05:03:25;;;;;;;2.83;0.38;;;0.00;99.90;;;;;;5057020;28;20093;-74
2021/04/16 05:05:51;;;;;;;1.58;0.30;;;0.00;99.90;;;;;;5074945;28;20032;-75
2021/04/16 05:08:16;;;;;;;3.58;0.40;;;0.10;99.90;;;;;;5086940;22;20524;-74
2021/04/16 05:10:42;;;;;;;4.78;1.05;;;0.10;99.90;;;;;;5074865;28;20032;-74
2021/04/16 05:13:08;;;;;;;3.60;0.60;;;0.20;99.90;;;;;;5074068;28;20025;-74
2021/04/16 05:15:34;;;;;;;4.85;0.40;;;0.20;99.90;;;;;;5073611;28;20024;-74
2021/04/16 05:18:00;;;;;;;6.72;0.85;;;0.20;99.90;;;;;;5056127;28;20123;-74
2021/04/16 05:20:25;;;;;;;4.43;0.40;;;0.20;99.90;;;;;;5073847;28;20031;-75
2021/04/16 05:22:51;;;;;;;2.63;0.43;;;0.20;99.90;;;;;;5074066;28;20040;-74
2021/04/16 05:25:17;;;;;;;1.83;0.52;;;0.20;99.90;;;;;;5073662;28;20541;-74
2021/04/16 05:27:42;;;;;;;3.65;0.88;;;0.10;99.90;;;;;;5073838;28;20021;-74
2021/04/16 05:30:09;;;;;;;4.55;1.48;;;0.20;99.90;;;;;;5055977;28;20039;-75
2021/04/16 05:32:35;;;;;;;5.50;1.02;;;0.20;99.90;;;;;;5073990;28;20375;-74
2021/04/16 05:35:00;;;;;;;3.40;0.93;;;0.20;99.90;;;;;;5073783;28;20021;-76
2021/04/16 05:37:26;;;;;;;5.78;1.52;;;0.30;99.90;;;;;;5055882;28;20060;-76
2021/04/16 05:39:52;;;;;;;8.57;1.73;;;0.40;99.90;;;;;;5074176;28;20462;-76
2021/04/16 05:42:19;;;;;;;7.18;1.15;;;0.50;99.90;;;;;;5074279;28;20042;-75
2021/04/16 05:44:44;;;;;;;7.22;1.55;;;0.50;99.90;;;;;;5073735;28;20082;-76
2021/04/16 05:47:10;;;;;;;7.60;1.67;;;0.60;99.90;;;;;;5074023;28;20020;-76
2021/04/16 05:49:36;;;;;;;4.32;1.40;;;0.60;99.90;;;;;;5074299;28;20043;-76
2021/04/16 05:52:01;;;;;;;5.28;1.95;;;0.70;99.90;;;;;;5086360;22;20020;-75
2021/04/16 05:54:27;;;;;;;8.57;1.73;;;0.80;99.90;;;;;;5055324;28;20027;-75
2021/04/16 05:56:52;;;;;;;6.18;1.75;;;0.90;99.90;;;;;;5073979;28;20469;-75
2021/04/16 05:59:18;;;;;;;4.20;1.27;;;1.00;99.90;;;;;;5074430;28;20024;-78
2021/04/16 06:01:45;;;;;;;9.70;2.22;;;1.20;99.90;;;;;;5073713;28;20013;-78
2021/04/16 06:04:19;;;;;;;4.25;1.42;;;1.40;99.90;;;;;;5055602;28;20024;-78
2021/04/16 06:06:45;;;;;;;5.88;1.60;;;1.50;99.90;;;;;;5073996;28;20047;-77
2021/04/16 06:09:11;;;;;;;5.82;1.30;;;1.80;99.90;;;;;;5054892;28;20020;-76
2021/04/16 06:11:37;;;;;;;10.73;1.73;;;2.00;99.90;;;;;;5055250;28;20021;-77
2021/04/16 06:14:03;;;;;;;5.82;1.73;;;2.10;99.90;;;;;;5080365;28;20033;-77
2021/04/16 06:16:29;;;;;;;8.07;2.05;;;2.40;99.90;;;;;;5073475;28;20020;-77
2021/04/16 06:18:54;;;;;;;9.55;1.73;;;2.60;99.90;;;;;;5072875;28;20513;-76
2021/04/16 06:21:20;;;;;;;8.07;2.05;;;2.80;99.90;;;;;;5073519;28;20025;-76
2021/04/16 06:23:45;;;;;;;5.07;1.65;;;2.90;99.90;;;;;;5055133;28;20016;-75
2021/04/16 06:26:11;;;;;;;7.10;2.42;;;3.10;99.90;;;;;;5085914;22;20025;-78
2021/04/16 06:28:36;;;;;;;7.43;1.92;;;3.30;99.90;;;;;;5074242;28;20028;-74
2021/04/16 06:31:03;;;;;;;9.27;1.92;;;3.60;99.90;;;;;;5145119;23;20076;-75
2021/04/16 06:33:31;;;;;;;8.00;1.85;;;3.70;99.90;;;;;;5073676;28;20025;-77
2021/04/16 06:36:18;;;;;;;9.38;1.95;;;3.90;99.90;;;;;;5073804;28;20021;-75
2021/04/16 06:38:45;;;;;;;3.75;1.23;;;4.10;99.90;;;;;;5073029;28;20099;-74
2021/04/16 06:41:20;;;;;;;8.02;1.73;;;4.30;99.90;;;;;;5073667;28;20089;-75
2021/04/16 06:43:49;;;;;;;6.47;1.50;;;4.50;99.90;;;;;;5055437;28;20115;-75
2021/04/16 06:46:22;;;;;;;7.55;1.65;;;4.70;99.90;;;;;;5086274;23;20496;-75
2021/04/16 06:48:48;;;;;;;10.27;1.67;;;4.90;99.90;;;;;;5072912;28;20035;-75
2021/04/16 06:51:16;;;;;;;5.13;1.02;;;5.00;99.90;;;;;;5055638;28;20012;-76
2021/04/16 06:54:02;;;;;;;5.97;1.13;;;5.20;99.90;;;;;;5073018;28;20397;-76
2021/04/16 06:56:42;;;;;;;8.57;1.38;;;5.40;99.90;;;;;;5073369;28;20021;-73
2021/04/16 06:59:25;;;;;;;5.85;1.05;;;5.60;99.90;;;;;;5072615;28;20040;-75
2021/04/16 07:01:59;;;;;;;9.43;1.33;;;5.70;99.90;;;;;;5076288;28;20055;-73
2021/04/16 07:04:46;;;;;;;8.23;1.10;;;5.90;99.90;;;;;;5072340;28;20406;-73
2021/04/16 07:07:36;;;;;;;6.95;1.15;;;6.10;99.90;;;;;;5073560;28;20461;-73
2021/04/16 07:10:16;;;;;;;6.32;1.02;;;6.20;99.90;;;;;;5073131;28;20428;-73
2021/04/16 07:12:42;;;;;;;6.32;0.85;;;6.40;99.90;;;;;;5073545;28;20036;-73
2021/04/16 07:15:12;;;;;;;6.95;0.90;;;6.50;99.90;;;;;;5073298;28;20044;-73
2021/04/16 07:17:41;;;;;;;7.90;1.00;;;6.70;99.90;;;;;;5087027;28;20055;-73
2021/04/16 07:20:09;;;;;;;1.88;0.80;;;6.70;99.90;;;;;;5075221;28;20017;-73
2021/04/16 07:22:50;;;;;;;5.20;1.20;;;6.80;99.90;;;;;;5092854;28;20100;-73
2021/04/16 07:25:36;;;;;;;12.93;2.58;;;6.90;99.90;;;;;;5077370;28;20032;-73
2021/04/16 07:28:08;;;;;;;5.30;0.50;;;7.10;99.90;;;;;;5058488;28;20387;-73
2021/04/16 07:30:39;;;;;;;6.20;0.77;;;7.10;99.90;;;;;;5076952;28;20028;-73
2021/04/16 07:33:45;;;;;;;6.85;2.15;;;7.10;99.90;;;;;;5057781;28;20123;-73
2021/04/16 07:36:37;;;;;;;7.55;1.25;;;7.20;99.90;;;;;;5057724;28;20032;-74
2021/04/16 07:39:12;;;;;;;5.25;0.70;;;7.40;99.90;;;;;;5083820;28;20064;-74
2021/04/16 07:41:54;;;;;;;4.10;0.60;;;7.50;99.90;;;;;;5050586;28;20038;-73
2021/04/16 07:44:29;;;;;;;4.65;0.60;;;7.60;99.90;;;;;;5076164;28;20074;-74
2021/04/16 07:47:21;;;;;;;6.93;0.52;;;7.70;99.90;;;;;;5075889;28;20052;-73
2021/04/16 07:50:41;;;;;;;8.07;0.88;;;7.80;99.90;;;;;;5057929;28;20115;-73
2021/04/16 07:53:30;;;;;;;5.97;0.65;;;7.80;99.90;;;;;;5008700;28;20113;-74
2021/04/16 07:56:19;;;;;;;4.30;0.77;;;8.00;99.90;;;;;;5076613;28;20055;-76
2021/04/16 07:58:58;;;;;;;4.35;0.93;;;8.20;99.90;;;;;;5076418;28;20028;-75
2021/04/16 08:01:26;;;;;;;3.67;0.60;;;8.30;99.90;;;;;;5075721;28;20514;-75
2021/04/16 08:03:59;;;;;;;6.82;1.33;;;8.50;97.60;;;;;;5067718;28;20535;-75
2021/04/16 08:06:30;;;;;;;8.38;1.05;;;8.60;97.00;;;;;;5076502;28;20401;-76
2021/04/16 08:08:56;;;;;;;2.72;0.70;;;8.70;96.50;;;;;;5057811;28;20025;-76
2021/04/16 08:11:26;;;;;;;13.10;0.50;;;8.70;93.30;;;;;;5076530;28;20028;-75
2021/04/16 08:13:56;;;;;;;2.88;0.40;;;9.10;93.40;;;;;;5058333;28;20024;-74
2021/04/16 08:16:25;;;;;;;5.20;0.80;;;8.80;92.60;;;;;;5058284;28;20048;-75
2021/04/16 08:18:56;;;;;;;4.07;0.50;;;9.20;88.10;;;;;;5057749;28;20021;-74
2021/04/16 08:21:23;;;;;;;3.10;0.80;;;9.00;87.40;;;;;;5076248;28;20024;-76
2021/04/16 08:24:17;;;;;;;3.30;0.20;;;9.00;81.70;;;;;;5076485;28;20100;-76
2021/04/16 08:26:46;;;;;;;2.55;0.43;;;9.00;82.30;;;;;;5057998;28;20020;-74
2021/04/16 08:29:11;;;;;;;2.42;0.10;;;9.00;82.10;;;;;;5057290;28;20077;-75
2021/04/16 08:31:49;;;;;;;5.00;0.60;;;9.20;80.80;;;;;;5075447;28;20029;-75
2021/04/16 08:34:28;;;;;;;3.53;0.45;;;9.30;80.10;;;;;;5074795;28;20497;-76
2021/04/16 08:36:54;;;;;;;3.58;0.32;;;9.30;81.90;;;;;;5057595;28;20028;-75
2021/04/16 08:39:35;;;;;;;2.78;0.20;;;9.40;83.60;;;;;;5075902;28;20024;-76
2021/04/16 08:42:31;;;;;;;2.55;0.43;;;9.50;76.80;;;;;;5058436;28;20051;-74
2021/04/16 08:45:08;;;;;;;1.15;0.10;;;9.60;74.70;;;;;;5070678;28;20033;-74
2021/04/16 08:48:00;;;;;;;1.92;0.20;;;9.70;71.90;;;;;;5075381;28;20026;-73
2021/04/16 08:50:29;;;;;;;5.55;0.40;;;9.70;70.10;;;;;;5064502;28;20094;-75
2021/04/16 08:53:02;;;;;;;4.32;0.20;;;9.80;71.50;;;;;;5075713;28;20028;-75
2021/04/16 08:58:04;;;;;;;7.22;0.20;;;10.10;69.90;;;;;;5053247;28;20122;-75
2021/04/16 09:00:43;;;;;;;0.98;0.13;;;10.20;68.20;;;;;;5054703;28;20033;-74
2021/04/16 09:03:24;;;;;;;;;;;10.20;65.70;;;;;;5037472;28;20052;-75
2021/04/16 09:05:59;;;;;;;3.90;0.20;;;10.30;64.80;;;;;;5037241;28;19908;-75
2021/04/16 09:08:26;;;;;;;2.92;0.00;;;10.40;62.20;;;;;;5055246;28;20381;-74
2021/04/16 09:10:57;;;;;;;3.65;0.50;;;10.60;62.30;;;;;;5036845;28;20025;-76
2021/04/16 09:13:38;;;;;;;0.45;0.15;;;10.60;59.90;;;;;;5036912;28;20040;-75
2021/04/16 09:16:16;;;;;;;4.15;0.35;;;10.80;61.30;;;;;;5054716;28;20029;-76
2021/04/16 09:18:43;;;;;;;0.40;0.15;;;10.80;58.60;;;;;;5054929;28;20033;-74
2021/04/16 09:21:15;;;;;;;0.10;0.00;;;10.90;55.50;;;;;;5054724;28;20121;-74
2021/04/16 09:23:40;;;;;;;0.82;0.20;;;11.00;57.20;;;;;;5036821;28;20029;-75
2021/04/16 09:26:10;;;;;;;0.35;0.00;;;11.10;56.80;;;;;;5054799;28;20028;-74
2021/04/16 09:28:35;;;;;;;0.95;0.20;;;11.50;54.70;;;;;;5035753;28;20021;-75
2021/04/16 09:31:24;;;;;;;1.25;0.15;;;11.20;57.00;;;;;;5054832;28;20444;-75
2021/04/16 09:34:13;;;;;;;2.03;0.10;;;11.40;57.80;;;;;;5054284;28;20500;-75
2021/04/16 09:36:39;;;;;;;1.92;0.25;;;11.50;53.80;;;;;;5053229;28;20025;-74
2021/04/16 09:39:15;;;;;;;4.15;0.00;;;11.60;54.50;;;;;;5054343;28;20029;-76
2021/04/16 09:41:46;;;;;;;0.63;0.00;;;11.80;56.00;;;;;;5054462;28;20371;-76
2021/04/16 09:44:26;;;;;;;2.90;0.00;;;11.90;55.00;;;;;;5035251;28;20032;-75
2021/04/16 09:46:57;;;;;;;1.40;0.00;;;12.10;53.10;;;;;;5053942;28;20100;-75
2021/04/16 09:49:25;;;;;;;1.42;0.10;;;12.10;51.20;;;;;;5053351;28;20067;-74
2021/04/16 09:51:54;;;;;;;2.67;0.25;;;12.20;50.70;;;;;;5035621;28;20033;-75
2021/04/16 09:54:19;;;;;;;;;;;12.30;49.90;;;;;;5036588;28;20367;-76
2021/04/16 09:57:12;;;;;;;0.35;0.20;;;12.30;48.70;;;;;;5053408;28;19973;-75
2021/04/16 09:59:39;;;;;;;0.35;0.10;;;12.30;51.10;;;;;;5012823;28;20148;-74
2021/04/16 10:02:14;;;;;;;1.35;0.47;;;12.30;50.70;;;;;;5054055;28;20028;-77
2021/04/16 10:05:06;;;;;;;1.98;0.00;;;12.30;51.70;;;;;;5054363;28;20017;-76
2021/04/16 10:07:47;;;;;;;0.40;0.00;;;12.40;52.70;;;;;;5053780;28;20021;-76
2021/04/16 10:10:34;;;;;;;1.58;0.17;;;12.40;49.50;;;;;;5036506;28;20045;-78
2021/04/16 10:13:19;;;;;;;2.53;0.20;;;12.30;50.40;;;;;;5055148;23;20021;-77
2021/04/16 10:15:53;;;;;;;0.30;0.10;;;12.40;51.30;;;;;;5014400;28;20036;-76
2021/04/16 10:18:21;;;;;;;2.10;0.10;;;12.50;50.20;;;;;;5001457;28;20025;-76
2021/04/16 10:21:14;;;;;;;0.70;0.08;;;12.60;50.50;;;;;;4996245;28;20493;-78
2021/04/16 10:24:18;;;;;;;3.25;0.00;;;12.70;48.80;;;;;;5015267;28;20093;-79
2021/04/16 11:44:42;;;;;;;0.30;0.10;;;15.50;45.30;;;;;;5035947;28;20140;-76
2021/04/16 12:38:41;;;;;;;2.30;0.30;;;16.40;42.10;;;;;;5055614;28;20559;-75
2021/04/16 12:41:12;;;;;;;0.68;0.10;;;16.40;44.40;;;;;;5064060;23;20048;-75
2021/04/16 12:43:38;;;;;;;0.90;0.20;;;16.20;42.40;;;;;;5090712;28;20012;-79
2021/04/16 12:46:07;;;;;;;2.15;0.28;;;16.00;43.90;;;;;;5057872;28;20023;-77
2021/04/16 12:48:32;;;;;;;;;;;15.60;44.40;;;;;;5076063;28;20095;-76
2021/04/16 12:50:58;;;;;;;1.33;0.22;;;15.30;42.50;;;;;;5081415;28;20347;-75
2021/04/16 12:53:23;;;;;;;1.60;0.10;;;15.50;42.90;;;;;;5075899;28;20028;-78
2021/04/16 12:55:49;;;;;;;0.90;0.22;;;15.60;45.90;;;;;;5075008;28;20067;-78
2021/04/16 12:58:29;;;;;;;0.88;0.35;;;15.90;43.10;;;;;;5056727;28;20020;-75
2021/04/16 13:00:55;;;;;;;1.02;0.17;;;16.20;45.90;;;;;;5077206;28;20033;-79
2021/04/16 13:03:28;;;;;;;0.50;0.20;;;16.60;43.20;;;;;;5077682;28;20013;-79
2021/04/16 13:05:54;;;;;;;0.52;0.10;;;17.10;44.10;;;;;;5057833;28;20059;-79
2021/04/16 13:08:19;;;;;;;3.38;0.32;;;17.30;43.70;;;;;;5083896;28;20024;-79
2021/04/16 13:10:45;;;;;;;0.43;0.20;;;17.50;43.70;;;;;;5067703;28;20401;-79
2021/04/16 13:13:11;;;;;;;0.43;0.10;;;17.40;41.00;;;;;;5059694;28;20032;-79
2021/04/16 13:15:37;;;;;;;1.45;0.20;;;18.00;42.60;;;;;;5077300;28;20017;-79
2021/04/16 13:18:15;;;;;;;1.33;0.17;;;17.50;40.80;;;;;;5059356;28;20024;-79
2021/04/16 13:20:44;;;;;;;2.60;0.00;;;17.80;42.10;;;;;;5058739;28;20397;-79
2021/04/16 13:23:09;;;;;;;;;;;18.00;39.60;;;;;;5059782;28;20042;-78
2021/04/16 13:25:35;;;;;;;0.45;0.10;;;18.10;40.50;;;;;;5077118;28;19944;-79
2021/04/16 13:28:01;;;;;;;0.38;0.00;;;19.10;41.60;;;;;;5058224;28;20397;-75
2021/04/16 13:30:28;;;;;;;0.60;0.15;;;18.80;40.30;;;;;;5073764;28;20389;-75
2021/04/16 13:32:58;;;;;;;4.60;0.00;;;18.70;38.90;;;;;;5056608;28;20049;-76
2021/04/16 13:35:32;;;;;;;1.50;0.63;;;18.20;38.70;;;;;;5074316;28;20025;-76
2021/04/16 13:38:01;;;;;;;0.93;0.00;;;17.50;39.10;;;;;;5073150;28;20074;-77
2021/04/16 13:40:27;;;;;;;0.30;0.00;;;17.40;42.00;;;;;;5056038;28;20111;-74
2021/04/16 13:42:52;;;;;;;3.28;0.00;;;17.60;41.50;;;;;;5055194;28;20107;-76
2021/04/16 13:45:18;;;;;;;0.45;0.00;;;18.00;41.60;;;;;;5073638;28;20280;-76
2021/04/16 13:47:46;;;;;;;1.58;0.10;;;17.90;39.80;;;;;;5057367;23;20064;-79
2021/04/16 13:50:15;;;;;;;2.20;0.03;;;18.00;40.90;;;;;;5034780;28;20025;-76
2021/04/16 13:52:41;;;;;;;1.10;0.08;;;18.40;41.20;;;;;;5018201;28;20017;-78
2021/04/16 13:55:07;;;;;;;2.05;0.20;;;18.80;41.40;;;;;;5033743;28;20387;-75
2021/04/16 13:57:32;;;;;;;0.32;0.00;;;18.20;39.00;;;;;;5031031;28;20095;-76
2021/04/16 13:59:58;;;;;;;0.60;0.00;;;17.40;39.30;;;;;;5025485;23;563234;-76
2021/04/16 14:02:30;;;;;;;0.60;0.00;;;17.20;39.50;;;;;;5034312;28;20071;-76
2021/04/16 14:04:57;;;;;;;1.00;0.30;;;17.40;40.50;;;;;;5033654;28;20079;-78
2021/04/16 14:07:22;;;;;;;2.47;0.00;;;17.60;41.20;;;;;;5034240;28;20171;-76
2021/04/16 14:09:48;;;;;;;2.05;0.10;;;18.00;42.50;;;;;;5032005;28;20049;-77
2021/04/16 14:12:15;;;;;;;0.38;0.00;;;18.60;40.80;;;;;;5033518;28;20104;-76
2021/04/16 14:14:41;;;;;;;2.22;0.68;;;19.00;38.60;;;;;;5031901;28;20026;-75
2021/04/16 14:17:12;;;;;;;0.52;0.05;;;19.50;38.80;;;;;;5031570;28;20086;-76
2021/04/16 14:20:02;;;;;;;1.67;0.32;;;20.30;38.40;;;;;;5033591;28;20025;-76
2021/04/16 14:22:34;;;;;;;2.45;0.30;;;19.90;36.90;;;;;;5033303;28;20099;-76
2021/04/16 14:25:00;;;;;;;3.97;0.90;;;19.80;36.00;;;;;;5033059;28;20363;-74
2021/04/16 14:27:26;;;;;;;0.63;0.10;;;18.80;38.50;;;;;;5032120;28;20013;-76
2021/04/16 14:29:52;;;;;;;2.25;0.45;;;18.20;37.70;;;;;;5056847;23;20136;-78
2021/04/16 14:32:22;;;;;;;2.08;0.00;;;18.40;41.50;;;;;;5038374;28;20492;-74
2021/04/16 14:34:47;;;;;;;1.58;0.10;;;18.60;39.90;;;;;;5039155;28;20112;-78
2021/04/16 14:37:13;;;;;;;1.58;0.10;;;18.70;39.50;;;;;;5040165;28;20057;-74
2021/04/16 14:39:39;;;;;;;0.63;0.08;;;18.30;37.10;;;;;;5057721;28;20044;-77
2021/04/16 14:42:05;;;;;;;2.55;0.10;;;17.60;39.70;;;;;;5058161;28;20024;-78
2021/04/16 14:44:31;;;;;;;3.22;0.10;;;17.30;39.40;;;;;;5038821;28;20021;-74
2021/04/16 14:46:57;;;;;;;0.50;0.00;;;17.50;38.90;;;;;;5056247;28;20485;-76
2021/04/16 14:49:27;;;;;;;0.85;0.30;;;17.90;39.70;;;;;;5063655;28;20013;-76
2021/04/16 14:51:57;;;;;;;0.10;0.00;;;18.40;38.20;;;;;;5060845;28;20029;-75
2021/04/16 14:54:30;;;;;;;1.13;0.00;;;18.70;37.40;;;;;;5075614;28;20047;-74
2021/04/16 14:56:58;;;;;;;1.95;0.10;;;19.00;37.70;;;;;;5077911;28;20029;-78
2021/04/16 14:59:39;;;;;;;1.27;0.00;;;19.10;36.40;;;;;;5077145;28;20099;-75
2021/04/16 15:02:19;;;;;;;0.40;0.10;;;19.50;35.80;;;;;;5068480;28;20566;-77
2021/04/16 15:04:45;;;;;;;2.13;0.00;;;19.80;36.80;;;;;;5039567;28;20052;-75
2021/04/16 15:07:11;;;;;;;0.60;0.00;;;20.20;36.60;;;;;;5039432;28;20555;-78
2021/04/16 15:09:41;;;;;;;1.98;0.03;;;20.10;34.80;;;;;;5062325;28;20025;-77
2021/04/16 15:12:11;;;;;;;1.83;0.00;;;20.30;36.40;;;;;;5075282;28;20028;-77
2021/04/16 15:14:38;;;;;;;0.73;0.00;;;20.60;36.40;;;;;;5077918;28;20024;-78
2021/04/16 15:17:04;;;;;;;0.70;0.00;;;21.20;35.10;;;;;;5073842;28;20028;-76
2021/04/16 15:19:42;;;;;;;1.25;0.15;;;21.30;33.70;;;;;;5055992;28;20036;-75